Terminal Aerodrome Forecast
Issued by NWS Memphis, TN

Home | Current Version | Previous Version | Text Only | Print | Product List | Glossary On
Versions: 1 2 3 4 5 6 7 8 9 10 11 12
840
FTUS44 KMEG 102320
TAFMKL
TAF
KMKL 102320Z 1100/1124 12003KT P6SM SKC
     FM110900 16007KT P6SM OVC080
     FM111800 17010G20KT P6SM OVC040=

USA.gov is the U.S. government's official web portal to all federal, state and local government web resources and services.